Time;durP1;ratioP1;P1;durP2;ratioP2;P2;SDS_P1;SDS_P2;PMS_P1;PMS_P2;Temp;Humidity;BMP_temperature;BMP_pressure;BME280_temperature;BME280_humidity;BME280_pressure;Samples;Min_cycle;Max_cycle;Signal;HPM_P1;HPM_P2
2022/07/25 00:02:20;;;;;;;;;;;;;;;21.36;82.30;95380.84;5075349;28;1040;-48
2022/07/25 00:04:46;;;;;;;;;;;;;;;21.44;81.66;95377.03;5075339;28;1045;-48
2022/07/25 00:07:13;;;;;;;;;;;;;;;21.25;83.03;95379.66;5075225;28;972;-48
2022/07/25 00:09:39;;;;;;;;;;;;;;;21.03;83.57;95364.81;5075367;28;966;-48
2022/07/25 00:12:05;;;;;;;;;;;;;;;21.05;83.86;95368.13;5074936;28;988;-48
2022/07/25 00:14:31;;;;;;;;;;;;;;;21.14;84.04;95361.38;5075390;28;1988;-48
2022/07/25 00:16:57;;;;;;;;;;;;;;;21.11;84.98;95363.69;5074879;28;1660;-48
2022/07/25 00:19:23;;;;;;;;;;;;;;;21.10;85.19;95364.75;5075221;28;1016;-47
2022/07/25 00:21:49;;;;;;;;;;;;;;;21.15;84.82;95363.03;5074899;28;1185;-48
2022/07/25 00:24:15;;;;;;;;;;;;;;;21.11;84.35;95353.63;5074935;28;1084;-48
2022/07/25 00:26:41;;;;;;;;;;;;;;;20.96;84.75;95353.13;5074856;28;1040;-47
2022/07/25 00:29:07;;;;;;;;;;;;;;;20.73;85.83;95351.00;5075108;28;1012;-48
2022/07/25 00:31:33;;;;;;;;;;;;;;;20.61;86.24;95346.28;5074742;28;1096;-48
2022/07/25 00:33:59;;;;;;;;;;;;;;;20.67;85.40;95341.84;5075090;28;1985;-48
2022/07/25 00:36:25;;;;;;;;;;;;;;;20.79;85.73;95336.53;5074767;28;1057;-48
2022/07/25 00:38:51;;;;;;;;;;;;;;;20.84;85.58;95329.41;5074750;28;1033;-48
2022/07/25 00:41:17;;;;;;;;;;;;;;;20.95;85.49;95330.56;5074399;28;1040;-48
2022/07/25 00:43:44;;;;;;;;;;;;;;;21.01;84.96;95328.84;5086032;28;1256;-47
2022/07/25 00:46:14;;;;;;;;;;;;;;;21.05;85.14;95330.06;5094946;28;972;-48
2022/07/25 00:48:41;;;;;;;;;;;;;;;20.74;86.11;95322.81;5094838;28;1045;-48
2022/07/25 00:51:07;;;;;;;;;;;;;;;20.53;86.42;95322.06;5094782;28;1047;-48
2022/07/25 00:53:34;;;;;;;;;;;;;;;20.63;86.17;95319.72;5094481;28;1996;-48
2022/07/25 00:56:00;;;;;;;;;;;;;;;20.78;85.82;95321.31;5094552;28;1945;-48
2022/07/25 00:58:26;;;;;;;;;;;;;;;20.98;84.90;95321.13;5094481;28;1033;-48
2022/07/25 01:00:52;;;;;;;;;;;;;;;20.92;85.33;95324.75;5076723;28;996;-48
2022/07/25 01:03:18;;;;;;;;;;;;;;;20.86;85.24;95319.13;5094339;28;1065;-48
2022/07/25 01:05:44;;;;;;;;;;;;;;;20.84;85.98;95317.69;5094272;28;1056;-48
2022/07/25 01:08:11;;;;;;;;;;;;;;;20.73;85.57;95311.09;5094247;28;1023;-48
2022/07/25 01:10:37;;;;;;;;;;;;;;;20.63;85.25;95308.03;5094321;28;1186;-48
2022/07/25 01:13:04;;;;;;;;;;;;;;;20.44;86.53;95307.91;5094260;28;1894;-48
2022/07/25 01:15:30;;;;;;;;;;;;;;;20.44;86.69;95318.78;5094309;28;1060;-48
2022/07/25 01:17:56;;;;;;;;;;;;;;;20.54;86.74;95306.59;5093877;28;1324;-48
2022/07/25 01:20:26;;;;;;;;;;;;;;;20.75;84.75;95302.72;5094235;28;921;-48
2022/07/25 01:22:53;;;;;;;;;;;;;;;20.79;85.50;95306.66;5093442;28;964;-48
2022/07/25 01:25:19;;;;;;;;;;;;;;;20.60;85.14;95305.75;5094032;28;1020;-48
2022/07/25 01:27:45;;;;;;;;;;;;;;;20.48;85.64;95303.72;5093941;28;2122;-47
2022/07/25 01:30:13;;;;;;;;;;;;;;;20.43;85.61;95298.13;5094141;28;1012;-48
2022/07/25 01:32:39;;;;;;;;;;;;;;;20.44;85.88;95290.81;5093931;28;1060;-48
2022/07/25 01:35:06;;;;;;;;;;;;;;;20.36;85.89;95293.78;5093596;28;1898;-48
2022/07/25 01:37:32;;;;;;;;;;;;;;;20.55;85.28;95298.25;5093677;28;978;-47
2022/07/25 01:39:58;;;;;;;;;;;;;;;20.64;85.10;95285.25;5093840;28;1028;-48
2022/07/25 01:42:24;;;;;;;;;;;;;;;20.59;85.40;95282.34;5093650;28;1158;-48
2022/07/25 01:44:50;;;;;;;;;;;;;;;20.29;86.33;95283.78;5073770;28;1008;-48
2022/07/25 01:47:16;;;;;;;;;;;;;;;20.16;86.58;95288.47;5073516;28;1144;-48
2022/07/25 01:49:43;;;;;;;;;;;;;;;20.23;86.22;95297.41;5073451;28;1092;-48
2022/07/25 01:52:09;;;;;;;;;;;;;;;20.15;86.65;95294.97;5073364;28;1076;-48
2022/07/25 01:54:35;;;;;;;;;;;;;;;19.99;86.68;95288.97;5073179;28;1933;-48
2022/07/25 01:57:01;;;;;;;;;;;;;;;20.01;87.10;95292.28;5073556;28;1038;-48
2022/07/25 01:59:27;;;;;;;;;;;;;;;20.13;86.43;95289.75;5073198;28;1032;-48
2022/07/25 02:01:53;;;;;;;;;;;;;;;20.17;86.16;95296.41;5073526;28;967;-48
2022/07/25 02:04:19;;;;;;;;;;;;;;;19.97;86.56;95291.06;5073068;28;965;-48
2022/07/25 02:06:45;;;;;;;;;;;;;;;19.86;87.57;95286.31;5073314;28;1031;-48
2022/07/25 02:09:11;;;;;;;;;;;;;;;19.86;86.98;95291.72;5073006;28;1054;-48
2022/07/25 02:11:37;;;;;;;;;;;;;;;19.95;86.89;95282.31;5073319;28;1952;-48
2022/07/25 02:14:03;;;;;;;;;;;;;;;20.07;86.55;95294.16;5072938;28;1902;-47
2022/07/25 02:16:29;;;;;;;;;;;;;;;20.20;85.63;95286.97;5073420;28;1035;-47
2022/07/25 02:18:55;;;;;;;;;;;;;;;20.12;86.04;95288.06;5072949;28;1144;-48
2022/07/25 02:21:21;;;;;;;;;;;;;;;19.86;86.43;95291.72;5073183;28;1072;-48
2022/07/25 02:23:47;;;;;;;;;;;;;;;19.92;85.92;95282.75;5073007;28;1044;-47
2022/07/25 02:26:13;;;;;;;;;;;;;;;20.04;85.50;95291.88;5073102;28;1992;-48
2022/07/25 02:28:39;;;;;;;;;;;;;;;19.94;85.32;95285.22;5073125;28;993;-48
2022/07/25 02:31:05;;;;;;;;;;;;;;;19.85;85.55;95292.81;5073164;28;962;-48
2022/07/25 02:33:31;;;;;;;;;;;;;;;19.87;86.05;95293.41;5072951;28;1922;-47
2022/07/25 02:35:57;;;;;;;;;;;;;;;19.90;85.32;95293.00;5074898;28;1026;-48
2022/07/25 02:38:23;;;;;;;;;;;;;;;19.79;85.96;95290.97;5059042;28;1118;-47
2022/07/25 02:40:50;;;;;;;;;;;;;;;19.53;86.74;95303.53;5077016;28;1072;-47
2022/07/25 02:43:16;;;;;;;;;;;;;;;19.61;85.92;95295.13;5084257;28;1327;-48
2022/07/25 02:45:43;;;;;;;;;;;;;;;19.77;85.67;95284.88;5097147;28;1016;-47
2022/07/25 02:48:09;;;;;;;;;;;;;;;19.62;85.58;95296.00;5097024;28;1297;-48
2022/07/25 02:50:35;;;;;;;;;;;;;;;19.39;86.41;95300.03;5096978;28;1059;-48
2022/07/25 02:53:01;;;;;;;;;;;;;;;19.36;86.40;95294.19;5096978;28;997;-48
2022/07/25 02:55:27;;;;;;;;;;;;;;;19.32;86.92;95296.47;5096993;28;1909;-48
2022/07/25 02:57:53;;;;;;;;;;;;;;;19.34;86.98;95304.41;5097125;28;1031;-48
2022/07/25 03:00:19;;;;;;;;;;;;;;;19.33;86.68;95302.72;5096634;28;1025;-48
2022/07/25 03:02:45;;;;;;;;;;;;;;;19.44;85.89;95310.22;5096963;28;1022;-48
2022/07/25 03:05:13;;;;;;;;;;;;;;;19.44;85.69;95302.09;5096424;28;1031;-48
2022/07/25 03:07:39;;;;;;;;;;;;;;;19.16;86.17;95313.19;5096741;28;1053;-48
2022/07/25 03:10:06;;;;;;;;;;;;;;;19.15;86.27;95309.66;5096709;28;984;-48
2022/07/25 03:12:32;;;;;;;;;;;;;;;19.34;85.56;95312.53;5096858;28;1037;-48
2022/07/25 03:14:59;;;;;;;;;;;;;;;19.25;85.52;95314.63;5096535;28;1988;-48
2022/07/25 03:17:25;;;;;;;;;;;;;;;19.07;85.43;95312.59;5096504;28;1076;-48
2022/07/25 03:19:51;;;;;;;;;;;;;;;18.93;86.03;95322.59;5096371;28;984;-48
2022/07/25 03:22:17;;;;;;;;;;;;;;;19.09;85.93;95318.63;5096415;28;1076;-48
2022/07/25 03:24:43;;;;;;;;;;;;;;;19.20;85.43;95327.97;5096279;28;1084;-47
2022/07/25 03:27:09;;;;;;;;;;;;;;;19.13;85.70;95325.28;5096504;28;1025;-48
2022/07/25 03:29:35;;;;;;;;;;;;;;;18.90;85.46;95323.84;5096375;28;974;-48
2022/07/25 03:32:01;;;;;;;;;;;;;;;19.00;85.44;95326.13;5096200;28;1017;-48
2022/07/25 03:34:27;;;;;;;;;;;;;;;19.17;84.76;95326.53;5095898;28;1989;-47
2022/07/25 03:36:53;;;;;;;;;;;;;;;19.02;85.53;95323.22;5096207;28;1057;-48
2022/07/25 03:39:19;;;;;;;;;;;;;;;18.92;85.05;95329.88;5095903;28;1088;-49
2022/07/25 03:41:45;;;;;;;;;;;;;;;19.00;84.31;95318.00;5096345;28;1072;-48
2022/07/25 03:44:12;;;;;;;;;;;;;;;19.07;84.48;95318.00;5080761;28;1210;-48
2022/07/25 03:46:38;;;;;;;;;;;;;;;18.83;85.30;95320.28;5075307;28;1029;-48
2022/07/25 03:49:04;;;;;;;;;;;;;;;18.72;85.98;95324.44;5075681;28;958;-48
2022/07/25 03:51:30;;;;;;;;;;;;;;;18.97;85.95;95329.28;5075626;28;1135;-47
2022/07/25 03:54:02;;;;;;;;;;;;;;;19.14;85.79;95324.22;5075846;28;1997;-49
2022/07/25 03:56:34;;;;;;;;;;;;;;;19.19;85.56;95323.63;5075651;28;1037;-48
2022/07/25 03:59:00;;;;;;;;;;;;;;;19.29;84.53;95341.13;5075456;28;1053;-47
2022/07/25 04:01:26;;;;;;;;;;;;;;;19.31;85.35;95338.19;5075457;28;979;-48
2022/07/25 04:03:52;;;;;;;;;;;;;;;19.47;85.06;95335.03;5075432;28;1009;-48
2022/07/25 04:06:18;;;;;;;;;;;;;;;19.69;84.78;95326.63;5075190;28;970;-48
2022/07/25 04:08:45;;;;;;;;;;;;;;;19.67;83.20;95326.00;5075571;28;967;-47
2022/07/25 04:11:11;;;;;;;;;;;;;;;19.65;82.49;95330.81;5075092;28;1029;-47
2022/07/25 04:13:37;;;;;;;;;;;;;;;19.39;85.14;95320.84;5075252;28;1891;-47
2022/07/25 04:16:03;;;;;;;;;;;;;;;19.40;85.87;95317.94;5074977;28;1997;-48
2022/07/25 04:18:29;;;;;;;;;;;;;;;19.68;85.15;95325.78;5074967;28;1115;-47
2022/07/25 04:20:55;;;;;;;;;;;;;;;19.87;85.34;95323.25;5075250;28;1057;-47
2022/07/25 04:23:21;;;;;;;;;;;;;;;20.12;84.40;95326.06;5075168;28;1033;-47
2022/07/25 04:25:47;;;;;;;;;;;;;;;20.41;82.71;95330.09;5074979;28;1038;-47
2022/07/25 04:28:13;;;;;;;;;;;;;;;20.40;83.52;95333.84;5074873;28;1960;-47
2022/07/25 04:30:39;;;;;;;;;;;;;;;20.38;83.60;95338.66;5074737;28;1087;-47
2022/07/25 04:33:05;;;;;;;;;;;;;;;20.56;83.75;95337.91;5074782;28;969;-47
2022/07/25 04:35:31;;;;;;;;;;;;;;;20.73;84.75;95338.25;5074370;28;1906;-48
2022/07/25 04:37:57;;;;;;;;;;;;;;;20.77;82.99;95339.50;5074970;28;1049;-50
2022/07/25 04:40:22;;;;;;;;;;;;;;;20.83;83.56;95344.06;5074407;28;1065;-50
2022/07/25 04:42:48;;;;;;;;;;;;;;;21.13;82.21;95334.41;5078227;28;1158;-47
2022/07/25 04:45:14;;;;;;;;;;;;;;;21.34;81.70;95344.03;5094679;28;996;-48
2022/07/25 04:47:40;;;;;;;;;;;;;;;21.64;81.27;95341.47;5094843;28;1154;-47
2022/07/25 04:50:07;;;;;;;;;;;;;;;21.79;80.57;95335.66;5094664;28;1060;-47
2022/07/25 04:52:32;;;;;;;;;;;;;;;21.93;79.72;95329.00;5094815;28;1040;-48
2022/07/25 04:54:58;;;;;;;;;;;;;;;22.02;80.00;95334.94;5094809;28;1910;-47
2022/07/25 04:57:24;;;;;;;;;;;;;;;22.04;79.95;95335.56;5094217;28;1096;-47
2022/07/25 04:59:50;;;;;;;;;;;;;;;22.10;79.92;95339.25;5094231;28;1033;-48
2022/07/25 05:02:16;;;;;;;;;;;;;;;22.28;78.98;95339.28;5094281;28;1091;-48
2022/07/25 05:04:42;;;;;;;;;;;;;;;22.30;78.90;95344.50;5094289;28;902;-50
2022/07/25 05:07:08;;;;;;;;;;;;;;;22.30;77.57;95333.59;5094415;28;1044;-48
2022/07/25 05:09:34;;;;;;;;;;;;;;;22.31;77.69;95346.13;5094420;28;1053;-47
2022/07/25 05:12:00;;;;;;;;;;;;;;;22.53;77.90;95336.41;5094269;28;1025;-48
2022/07/25 05:14:26;;;;;;;;;;;;;;;22.84;75.29;95339.94;5094448;28;1909;-48
2022/07/25 05:16:52;;;;;;;;;;;;;;;23.33;74.16;95337.06;5093937;28;1250;-48
2022/07/25 05:19:18;;;;;;;;;;;;;;;24.13;70.95;95338.31;5094095;28;1155;-48
2022/07/25 05:21:44;;;;;;;;;;;;;;;24.75;67.69;95340.38;5094250;28;1015;-48
2022/07/25 05:24:10;;;;;;;;;;;;;;;24.68;67.75;95343.28;5094091;28;1049;-48
2022/07/25 05:26:36;;;;;;;;;;;;;;;24.22;69.86;95342.31;5094002;28;1048;-48
2022/07/25 05:29:02;;;;;;;;;;;;;;;24.01;70.52;95338.34;5094142;28;992;-48
2022/07/25 05:31:28;;;;;;;;;;;;;;;24.05;70.09;95339.53;5093924;28;997;-48
2022/07/25 05:33:54;;;;;;;;;;;;;;;24.00;71.75;95336.69;5093909;28;1906;-48
2022/07/25 05:36:20;;;;;;;;;;;;;;;23.87;72.32;95340.53;5093748;28;1030;-48
2022/07/25 05:38:46;;;;;;;;;;;;;;;23.72;73.72;95338.25;5094133;28;1060;-48
2022/07/25 05:41:12;;;;;;;;;;;;;;;23.83;73.58;95338.50;5093807;28;1032;-48
2022/07/25 05:43:38;;;;;;;;;;;;;;;24.61;70.24;95339.84;5083842;28;1154;-48
2022/07/25 05:46:04;;;;;;;;;;;;;;;25.41;67.09;95343.44;5073389;28;1095;-48
2022/07/25 05:48:30;;;;;;;;;;;;;;;25.73;65.24;95339.25;5073427;28;1037;-48
2022/07/25 05:50:58;;;;;;;;;;;;;;;25.62;66.00;95346.47;5073713;28;1134;-48
2022/07/25 05:53:24;;;;;;;;;;;;;;;25.61;65.74;95334.72;5073463;28;2016;-48
2022/07/25 05:55:50;;;;;;;;;;;;;;;26.03;64.09;95336.97;5073574;28;1214;-48
2022/07/25 05:58:16;;;;;;;;;;;;;;;26.21;63.87;95329.50;5073217;28;1021;-48
2022/07/25 06:00:42;;;;;;;;;;;;;;;25.54;65.26;95331.31;5073438;28;1987;-48
2022/07/25 06:03:08;;;;;;;;;;;;;;;25.24;67.17;95324.28;5073086;28;1043;-48
2022/07/25 06:05:34;;;;;;;;;;;;;;;25.06;68.91;95321.75;5073168;28;1872;-48
2022/07/25 06:08:00;;;;;;;;;;;;;;;24.69;69.42;95319.47;5073063;28;1034;-49
2022/07/25 06:10:26;;;;;;;;;;;;;;;24.72;70.06;95313.53;5073145;28;1195;-48
2022/07/25 06:12:52;;;;;;;;;;;;;;;24.82;69.74;95307.41;5073217;28;1217;-49
2022/07/25 06:15:18;;;;;;;;;;;;;;;24.69;67.84;95311.28;5073167;28;1991;-48
2022/07/25 06:17:44;;;;;;;;;;;;;;;24.78;68.60;95307.06;5072809;28;1084;-48
2022/07/25 06:20:11;;;;;;;;;;;;;;;24.91;69.62;95311.41;5073097;28;1064;-48
2022/07/25 06:22:37;;;;;;;;;;;;;;;25.07;69.46;95313.31;5073045;28;1837;-49
2022/07/25 06:25:03;;;;;;;;;;;;;;;25.29;69.42;95307.13;5073176;28;965;-49
2022/07/25 06:27:29;;;;;;;;;;;;;;;25.35;67.40;95310.78;5072986;28;1879;-48
2022/07/25 06:29:55;;;;;;;;;;;;;;;25.32;68.90;95312.91;5073205;28;967;-48
2022/07/25 06:32:21;;;;;;;;;;;;;;;25.43;69.26;95313.06;5072760;28;971;-48
2022/07/25 06:34:47;;;;;;;;;;;;;;;25.56;68.85;95306.44;5072766;28;2016;-48
2022/07/25 06:37:14;;;;;;;;;;;;;;;25.77;68.01;95302.06;5072785;28;1013;-49
2022/07/25 06:39:40;;;;;;;;;;;;;;;25.97;67.11;95304.25;5072967;28;1009;-49
2022/07/25 06:42:06;;;;;;;;;;;;;;;26.15;66.14;95303.94;5072848;28;968;-48
2022/07/25 06:44:33;;;;;;;;;;;;;;;26.46;66.23;95296.94;5090867;28;1974;-49
2022/07/25 06:47:00;;;;;;;;;;;;;;;26.39;65.07;95300.91;5093015;28;1005;-48
2022/07/25 06:49:26;;;;;;;;;;;;;;;26.48;65.05;95297.50;5093249;28;1033;-49
2022/07/25 06:51:52;;;;;;;;;;;;;;;26.59;63.81;95298.44;5093072;28;1084;-49
2022/07/25 06:54:18;;;;;;;;;;;;;;;26.81;64.43;95297.56;5092897;28;1914;-49
2022/07/25 06:56:44;;;;;;;;;;;;;;;26.88;64.65;95307.25;5093035;28;1941;-49
2022/07/25 06:59:10;;;;;;;;;;;;;;;26.94;63.85;95302.63;5092866;28;1017;-49
2022/07/25 07:01:37;;;;;;;;;;;;;;;26.77;65.45;95300.00;5093401;28;1016;-49
2022/07/25 07:04:03;;;;;;;;;;;;;;;26.86;65.15;95292.09;5092529;28;1045;-49
2022/07/25 07:06:30;;;;;;;;;;;;;;;26.93;63.66;95300.97;5093102;28;1040;-49
2022/07/25 07:08:56;;;;;;;;;;;;;;;27.11;62.29;95299.75;5092929;28;1011;-49
2022/07/25 07:11:22;;;;;;;;;;;;;;;27.41;61.15;95306.59;5092785;28;1080;-49
2022/07/25 07:13:48;;;;;;;;;;;;;;;27.50;60.86;95299.50;5092672;28;1917;-49
2022/07/25 07:16:14;;;;;;;;;;;;;;;27.53;58.60;95303.66;5092677;28;1053;-49
2022/07/25 07:18:40;;;;;;;;;;;;;;;27.64;58.77;95297.13;5092567;28;1191;-49
2022/07/25 07:21:06;;;;;;;;;;;;;;;27.81;58.28;95294.19;5093226;28;1088;-49
2022/07/25 07:23:32;;;;;;;;;;;;;;;27.87;56.97;95289.56;5096316;28;1033;-49
2022/07/25 07:25:58;;;;;;;;;;;;;;;27.92;57.29;95287.69;5096431;28;1052;-49
2022/07/25 07:28:24;;;;;;;;;;;;;;;28.08;57.24;95285.88;5096139;28;1025;-49
2022/07/25 07:30:50;;;;;;;;;;;;;;;28.24;56.09;95284.00;5096302;28;1222;-49
2022/07/25 07:33:16;;;;;;;;;;;;;;;28.28;56.76;95287.84;5096049;28;1027;-49
2022/07/25 07:35:43;;;;;;;;;;;;;;;28.47;54.69;95285.44;5096000;28;1906;-49
2022/07/25 07:38:09;;;;;;;;;;;;;;;28.66;54.40;95283.03;5096108;28;950;-49
2022/07/25 07:40:35;;;;;;;;;;;;;;;28.78;51.83;95283.63;5096338;28;1178;-49
2022/07/25 07:43:02;;;;;;;;;;;;;;;28.79;51.48;95285.25;5090697;28;1205;-49
2022/07/25 07:45:29;;;;;;;;;;;;;;;28.92;52.14;95277.56;5075812;28;1020;-49
2022/07/25 07:47:55;;;;;;;;;;;;;;;28.94;51.16;95278.94;5075649;28;1020;-49
2022/07/25 07:50:22;;;;;;;;;;;;;;;28.96;50.87;95289.69;5075664;28;1158;-49
2022/07/25 07:52:49;;;;;;;;;;;;;;;28.90;51.15;95283.34;5075751;28;969;-49
2022/07/25 07:58:00;;;;;;;;;;;;;;;28.94;49.63;95278.94;5075482;28;1028;-49
2022/07/25 08:00:26;;;;;;;;;;;;;;;28.98;49.17;95277.28;5075574;28;1001;-49
2022/07/25 08:02:54;;;;;;;;;;;;;;;29.08;49.25;95273.72;5075662;28;984;-49
2022/07/25 08:05:39;;;;;;;;;;;;;;;29.17;46.66;95279.53;5075129;28;1017;-49
2022/07/25 08:08:06;;;;;;;;;;;;;;;29.27;46.78;95276.75;5075290;28;968;-49
2022/07/25 08:10:35;;;;;;;;;;;;;;;29.42;46.35;95281.44;5075394;28;1069;-49
2022/07/25 08:13:02;;;;;;;;;;;;;;;29.48;45.67;95280.34;5075324;28;1039;-49
2022/07/25 08:15:28;;;;;;;;;;;;;;;29.49;46.76;95281.16;5075193;28;2013;-49
2022/07/25 08:17:54;;;;;;;;;;;;;;;29.51;46.63;95270.69;5075233;28;1254;-49
2022/07/25 08:20:22;;;;;;;;;;;;;;;29.66;46.21;95267.91;5075135;28;953;-49
2022/07/25 08:22:48;;;;;;;;;;;;;;;29.75;46.32;95269.00;5075608;28;1001;-49
2022/07/25 08:25:15;;;;;;;;;;;;;;;29.85;45.88;95272.84;5074770;28;1944;-49
2022/07/25 08:27:42;;;;;;;;;;;;;;;30.02;44.66;95261.50;5075256;28;969;-49
2022/07/25 08:30:09;;;;;;;;;;;;;;;30.12;44.34;95266.97;5075016;28;1130;-49
2022/07/25 08:32:45;;;;;;;;;;;;;;;30.18;44.79;95260.31;5074921;28;1025;-49
2022/07/25 08:35:11;;;;;;;;;;;;;;;30.27;45.06;95266.88;5056662;28;1910;-49
2022/07/25 08:37:37;;;;;;;;;;;;;;;30.40;44.39;95257.22;5074904;28;1056;-49
2022/07/25 08:40:03;;;;;;;;;;;;;;;30.45;42.63;95256.34;5074562;28;1048;-49
2022/07/25 08:42:29;;;;;;;;;;;;;;;30.39;42.71;95255.53;5075686;28;1235;-49
2022/07/25 08:44:58;;;;;;;;;;;;;;;30.47;42.35;95252.22;5094926;28;1068;-49
2022/07/25 08:47:24;;;;;;;;;;;;;;;30.55;43.15;95248.84;5094957;28;1009;-49
2022/07/25 08:49:50;;;;;;;;;;;;;;;30.50;42.22;95248.84;5094721;28;1135;-49
2022/07/25 08:52:17;;;;;;;;;;;;;;;30.54;43.35;95249.13;5094644;28;1152;-50
2022/07/25 08:54:44;;;;;;;;;;;;;;;30.55;44.41;95248.84;5094448;28;1906;-50
2022/07/25 08:57:10;;;;;;;;;;;;;;;30.62;42.37;95242.16;5094803;28;1049;-49
2022/07/25 08:59:36;;;;;;;;;;;;;;;30.63;42.86;95243.84;5094685;28;969;-49
2022/07/25 09:02:05;;;;;;;;;;;;;;;30.62;43.04;95244.94;5094629;28;1058;-50
2022/07/25 09:04:35;;;;;;;;;;;;;;;30.69;43.21;95242.69;5094158;28;945;-50
2022/07/25 09:07:03;;;;;;;;;;;;;;;30.75;41.80;95227.72;5094300;28;1084;-49
2022/07/25 09:09:30;;;;;;;;;;;;;;;30.77;43.36;95219.97;5094500;28;996;-49
2022/07/25 09:11:57;;;;;;;;;;;;;;;30.76;42.70;95218.34;5094395;28;922;-49
2022/07/25 09:14:23;;;;;;;;;;;;;;;30.63;41.67;95219.81;5094205;28;1909;-49
2022/07/25 09:16:49;;;;;;;;;;;;;;;30.84;42.35;95206.69;5094176;28;1230;-50
2022/07/25 09:19:16;;;;;;;;;;;;;;;30.86;41.31;95209.97;5094066;28;1107;-50
2022/07/25 09:21:43;;;;;;;;;;;;;;;30.92;42.56;95210.78;5094168;28;1048;-50
2022/07/25 09:24:11;;;;;;;;;;;;;;;30.97;42.23;95207.19;5094157;28;1029;-49
2022/07/25 09:26:50;;;;;;;;;;;;;;;30.48;42.18;95208.88;5094533;28;957;-49
2022/07/25 09:29:26;;;;;;;;;;;;;;;30.67;44.05;95198.81;5093825;28;1052;-50
2022/07/25 09:31:53;;;;;;;;;;;;;;;30.65;41.57;95200.22;5094524;28;1037;-49
2022/07/25 09:34:39;;;;;;;;;;;;;;;30.33;42.32;95207.88;5093458;28;1910;-50
2022/07/25 09:37:13;;;;;;;;;;;;;;;30.65;42.15;95191.94;5094128;28;1025;-49
2022/07/25 09:39:39;;;;;;;;;;;;;;;30.74;41.13;95196.56;5075845;28;1017;-50
2022/07/25 09:42:25;;;;;;;;;;;;;;;30.96;41.15;95203.56;5093930;28;977;-50
2022/07/25 09:44:58;;;;;;;;;;;;;;;30.52;41.56;95204.44;5072952;28;1012;-49
2022/07/25 09:47:24;;;;;;;;;;;;;;;30.53;40.53;95206.91;5073542;28;1037;-49
2022/07/25 09:49:51;;;;;;;;;;;;;;;30.22;40.83;95199.91;5073536;28;968;-50
2022/07/25 09:52:17;;;;;;;;;;;;;;;30.15;41.42;95192.78;5073599;28;1039;-49
2022/07/25 09:54:43;;;;;;;;;;;;;;;30.49;39.47;95191.25;5073279;28;1906;-49
2022/07/25 09:57:09;;;;;;;;;;;;;;;30.88;38.84;95187.63;5073376;28;1094;-50
2022/07/25 09:59:35;;;;;;;;;;;;;;;30.96;39.31;95178.72;5073565;28;1024;-50
2022/07/25 10:02:09;;;;;;;;;;;;;;;30.60;38.30;95181.78;5073254;28;1021;-49
2022/07/25 10:04:43;;;;;;;;;;;;;;;30.28;37.83;95183.06;5073055;28;1212;-50
2022/07/25 10:07:11;;;;;;;;;;;;;;;30.47;39.92;95180.50;5073383;28;955;-49
2022/07/25 10:09:41;;;;;;;;;;;;;;;30.54;38.31;95175.47;5073232;28;984;-50
2022/07/25 10:12:11;;;;;;;;;;;;;;;30.67;36.12;95168.47;5073206;28;1064;-50
2022/07/25 10:14:37;;;;;;;;;;;;;;;30.99;35.90;95166.31;5073331;28;1898;-50
2022/07/25 10:17:04;;;;;;;;;;;;;;;31.18;35.81;95169.97;5073067;28;1239;-50
2022/07/25 10:19:43;;;;;;;;;;;;;;;30.92;37.13;95167.47;5073378;28;1043;-50
2022/07/25 10:22:09;;;;;;;;;;;;;;;30.62;36.84;95167.69;5073075;28;1112;-50
2022/07/25 10:24:37;;;;;;;;;;;;;;;30.64;36.40;95158.03;5073147;28;963;-50
2022/07/25 10:27:07;;;;;;;;;;;;;;;30.52;36.39;95152.84;5072864;28;1146;-50
2022/07/25 10:29:34;;;;;;;;;;;;;;;30.79;35.77;95151.56;5073121;28;1081;-50
2022/07/25 10:32:07;;;;;;;;;;;;;;;31.11;36.51;95150.16;5072959;28;1030;-50
2022/07/25 10:34:34;;;;;;;;;;;;;;;31.36;35.74;95145.50;5072830;28;1910;-50
2022/07/25 10:37:10;;;;;;;;;;;;;;;31.54;34.77;95147.53;5072744;28;970;-49
2022/07/25 10:39:37;;;;;;;;;;;;;;;31.49;33.88;95144.81;5072990;28;1045;-50
2022/07/25 10:42:04;;;;;;;;;;;;;;;31.06;34.51;95136.44;5073187;28;1036;-50
2022/07/25 10:44:45;;;;;;;;;;;;;;;30.77;33.74;95144.66;5090399;28;1159;-50
2022/07/25 10:47:12;;;;;;;;;;;;;;;30.66;34.71;95149.47;5092834;28;1056;-50
2022/07/25 10:49:39;;;;;;;;;;;;;;;30.70;34.97;95145.00;5093118;28;970;-49
2022/07/25 10:52:05;;;;;;;;;;;;;;;30.85;35.53;95142.09;5092863;28;1167;-50
2022/07/25 10:54:35;;;;;;;;;;;;;;;30.89;34.86;95139.59;5093146;28;1910;-50
2022/07/25 10:57:03;;;;;;;;;;;;;;;31.05;35.57;95143.06;5094960;28;992;-49
2022/07/25 10:59:36;;;;;;;;;;;;;;;31.23;35.16;95139.56;5097095;28;980;-50
2022/07/25 11:02:03;;;;;;;;;;;;;;;31.41;34.92;95137.16;5096583;28;1088;-49
2022/07/25 11:04:43;;;;;;;;;;;;;;;31.60;34.26;95135.28;5096926;28;1028;-49
2022/07/25 11:07:10;;;;;;;;;;;;;;;31.70;33.27;95129.66;5096615;28;917;-50
2022/07/25 11:09:58;;;;;;;;;;;;;;;31.81;33.70;95118.47;5096931;28;986;-49
2022/07/25 11:12:25;;;;;;;;;;;;;;;31.81;33.44;95115.69;5096480;28;1858;-50
2022/07/25 11:14:55;;;;;;;;;;;;;;;31.44;33.52;95120.00;5096594;28;1990;-50
2022/07/25 11:17:22;;;;;;;;;;;;;;;31.01;33.87;95114.38;5096276;28;1127;-50
2022/07/25 11:20:08;;;;;;;;;;;;;;;30.86;33.78;95116.13;5096909;28;1933;-49
2022/07/25 11:22:34;;;;;;;;;;;;;;;30.88;33.96;95116.66;5096470;28;1033;-50
2022/07/25 11:25:01;;;;;;;;;;;;;;;30.81;34.66;95109.84;5096368;28;1041;-50
2022/07/25 11:27:31;;;;;;;;;;;;;;;30.70;34.05;95103.63;5096828;28;1036;-50
2022/07/25 11:30:07;;;;;;;;;;;;;;;30.65;33.27;95106.41;5096628;28;1033;-49
2022/07/25 11:32:46;;;;;;;;;;;;;;;30.68;34.37;95092.88;5096231;28;1032;-49
2022/07/25 11:35:13;;;;;;;;;;;;;;;30.59;34.46;95093.78;5096002;28;1999;-50
2022/07/25 11:37:40;;;;;;;;;;;;;;;30.69;33.72;95090.91;5096069;28;937;-49
2022/07/25 11:40:07;;;;;;;;;;;;;;;30.89;33.69;95087.97;5096416;28;995;-50
2022/07/25 11:42:39;;;;;;;;;;;;;;;30.92;33.13;95090.19;5094016;28;1213;-50
2022/07/25 11:45:14;;;;;;;;;;;;;;;31.05;34.42;95085.06;5075914;28;1040;-50
2022/07/25 11:47:41;;;;;;;;;;;;;;;31.26;33.54;95083.72;5075655;28;1076;-50
2022/07/25 11:50:13;;;;;;;;;;;;;;;31.45;33.16;95091.25;5075684;28;1040;-49
2022/07/25 11:52:41;;;;;;;;;;;;;;;31.63;33.54;95075.88;5075818;28;988;-50
2022/07/25 11:55:08;;;;;;;;;;;;;;;31.56;32.51;95086.47;5075715;28;1902;-50
2022/07/25 11:57:35;;;;;;;;;;;;;;;31.56;32.14;95080.94;5075554;28;1126;-49
2022/07/25 12:00:05;;;;;;;;;;;;;;;31.64;31.74;95080.25;5075557;28;1182;-49
2022/07/25 12:02:32;;;;;;;;;;;;;;;31.69;31.64;95081.03;5075326;28;1863;-50
2022/07/25 12:04:59;;;;;;;;;;;;;;;31.67;32.28;95068.63;5075250;28;1025;-50
2022/07/25 12:07:39;;;;;;;;;;;;;;;31.48;32.34;95065.84;5075159;28;1028;-50
2022/07/25 12:10:08;;;;;;;;;;;;;;;31.26;31.97;95061.63;5075436;28;966;-50
2022/07/25 12:12:42;;;;;;;;;;;;;;;31.29;31.40;95054.72;5075248;28;1068;-50
2022/07/25 12:15:09;;;;;;;;;;;;;;;31.43;31.82;95061.16;5075089;28;1910;-50
2022/07/25 12:17:35;;;;;;;;;;;;;;;31.48;31.41;95060.31;5075137;28;1093;-50
2022/07/25 12:20:01;;;;;;;;;;;;;;;31.55;32.30;95060.78;5075139;28;1104;-50
2022/07/25 12:22:27;;;;;;;;;;;;;;;31.58;32.35;95056.59;5075144;28;1045;-50
2022/07/25 12:24:53;;;;;;;;;;;;;;;31.62;31.34;95050.16;5075261;28;970;-49
2022/07/25 12:27:19;;;;;;;;;;;;;;;31.62;32.17;95052.91;5074917;28;1016;-49
2022/07/25 12:29:45;;;;;;;;;;;;;;;31.70;32.86;95043.13;5075048;28;1024;-50
2022/07/25 12:32:11;;;;;;;;;;;;;;;31.70;32.67;95046.75;5074691;28;970;-50
2022/07/25 12:34:37;;;;;;;;;;;;;;;31.74;31.67;95041.44;5074870;28;2019;-50
2022/07/25 12:37:03;;;;;;;;;;;;;;;31.76;31.64;95038.38;5074892;28;958;-50
2022/07/25 12:39:30;;;;;;;;;;;;;;;31.70;31.39;95034.84;5074925;28;996;-50
2022/07/25 12:41:56;;;;;;;;;;;;;;;31.74;30.57;95029.56;5074843;28;1032;-50
2022/07/25 12:44:22;;;;;;;;;;;;;;;31.73;30.67;95038.97;5090817;28;1963;-49
2022/07/25 12:46:48;;;;;;;;;;;;;;;31.69;29.95;95031.28;5094915;28;1147;-49
2022/07/25 12:49:14;;;;;;;;;;;;;;;31.68;30.84;95031.56;5094844;28;989;-49
2022/07/25 12:51:40;;;;;;;;;;;;;;;31.63;29.66;95026.13;5095046;28;1061;-50
2022/07/25 12:54:06;;;;;;;;;;;;;;;31.66;29.81;95020.84;5094701;28;1909;-49
2022/07/25 12:56:33;;;;;;;;;;;;;;;31.75;30.46;95017.38;5094838;28;953;-50
2022/07/25 12:59:00;;;;;;;;;;;;;;;31.77;28.91;95012.38;5094518;28;1024;-50
2022/07/25 13:01:26;;;;;;;;;;;;;;;31.66;30.16;95018.06;5094566;28;1008;-50
2022/07/25 13:03:52;;;;;;;;;;;;;;;31.54;31.79;95014.91;5094844;28;979;-50